EDT,Max TemperatureF,Mean TemperatureF,Min TemperatureF,Max Dew PointF,MeanDew PointF,Min DewpointF,Max Humidity, Mean Humidity, Min Humidity, Max Sea Level PressureIn, Mean Sea Level PressureIn, Min Sea Level PressureIn, Max VisibilityMiles, Mean VisibilityMiles, Min VisibilityMiles, Max Wind SpeedMPH, Mean Wind SpeedMPH, Max Gust SpeedMPH,PrecipitationIn, CloudCover, Events, WindDirDegrees
2012-10-1,61,56,50,51,47,46,86,79,67,29.96,29.75,29.68,10,10,10,13,8,18,0.02,7,Rain,206
2012-10-2,66,58,53,55,52,49,88,81,58,30.08,30.05,29.97,10,8,2,6,3,,0.08,6,Rain,195
2012-10-3,64,62,59,61,57,55,90,88,83,30.19,30.11,30.05,10,2,1,4,0,,0.08,8,Rain,100
2012-10-4,64,62,59,61,57,55,90,87,82,30.19,30.15,30.06,10,5,1,5,0,,0.10,8,Rain,187
2012-10-5,75,65,55,57,54,50,94,82,43,30.06,30.02,29.94,10,5,0,7,3,,0.01,3,Fog,203
2012-10-6,75,62,48,56,50,38,94,78,50,29.94,29.85,29.72,10,6,1,12,2,25,0.02,2,Rain,231
2012-10-7,54,47,41,42,38,35,83,68,52,30.09,30.05,29.96,10,10,7,7,2,,0.07,3,Rain,195
2012-10-8,55,46,37,41,38,34,93,77,51,30.35,30.19,30.06,10,8,0,5,1,,0.01,5,Fog-Rain,219
2012-10-9,54,46,39,45,42,35,87,78,68,30.33,30.26,30.17,10,9,6,6,1,,0.00,8,,48
2012-10-10,57,52,48,54,48,40,93,84,66,30.16,29.91,29.74,10,5,1,7,1,17,0.12,8,Rain,212
2012-10-11,53,46,37,38,32,29,83,56,41,30.14,30.04,29.84,10,10,10,15,8,26,0.00,1,,259
2012-10-12,50,43,34,37,29,20,76,58,31,30.39,30.14,30.01,10,10,9,10,4,21,0.01,4,Rain,289
2012-10-13,50,41,32,30,22,17,67,46,27,30.48,30.41,30.32,10,10,10,9,3,17,0.00,1,,275
2012-10-14,60,51,42,51,44,34,87,79,68,30.27,30.10,29.94,10,8,2,10,6,18,0.56,6,Rain,203
2012-10-15,70,64,59,59,56,52,88,77,63,29.91,29.72,29.63,10,9,1,16,9,25,0.54,7,Rain,205
2012-10-16,57,48,36,55,36,30,82,63,43,29.91,29.73,29.62,10,10,10,15,4,25,0.00,4,,291
2012-10-17,62,47,32,40,32,26,85,64,28,30.03,29.97,29.92,10,10,10,6,1,,0.00,0,,170
2012-10-18,66,50,35,44,38,31,86,68,36,30.14,30.09,30.04,10,10,5,9,2,,0.00,0,,173
2012-10-19,66,55,44,61,54,41,88,83,77,30.10,29.90,29.75,10,6,1,8,2,,0.77,8,Rain,146
2012-10-20,71,62,50,61,56,39,90,81,42,29.76,29.70,29.64,10,7,0,10,3,,0.00,6,Fog,179
2012-10-21,61,50,42,42,38,34,79,59,41,29.91,29.87,29.79,10,10,10,14,4,22,0.00,5,,262
2012-10-22,64,56,48,40,37,35,66,52,35,30.04,29.96,29.91,10,10,10,12,6,22,0.00,2,,279
2012-10-23,62,52,41,45,41,37,86,67,48,30.14,30.10,30.05,10,10,10,6,2,,0.00,1,,278
2012-10-24,54,48,39,40,36,30,86,63,45,30.25,30.20,30.16,10,10,10,6,1,,0.00,6,,200
2012-10-25,61,49,37,43,38,30,86,64,31,30.32,30.28,30.26,10,10,10,7,1,,0.00,6,,210
2012-10-26,64,55,46,52,47,41,86,76,63,30.27,30.21,30.16,10,9,5,9,4,,0.00,5,,197
2012-10-27,61,54,46,52,48,42,90,83,72,30.15,30.09,30.02,10,5,0,5,1,,0.00,7,Fog,132
2012-10-28,55,52,48,47,44,37,87,76,53,30.05,29.96,29.84,10,8,2,8,3,16,0.04,7,Rain,60
2012-10-29,64,55,48,57,52,45,88,83,77,29.81,29.42,29.22,9,2,1,16,8,41,3.09,8,Rain,61
2012-10-30,66,58,53,57,53,48,88,80,61,29.57,29.47,29.30,10,7,1,15,7,29,1.07,7,Rain-Thunderstorm,142
2012-10-31,54,49,43,50,44,36,89,80,63,29.56,29.51,29.46,10,7,0,20,3,28,0.04,8,Fog-Rain,201